createdAt,value
2022-11-12T00:02:16.341Z,101117.34
2022-11-12T00:05:02.054Z,101114.84
2022-11-12T00:07:47.859Z,101119.66
2022-11-12T00:10:33.623Z,101121.59
2022-11-12T00:13:19.365Z,101115.94
2022-11-12T00:16:05.828Z,101117.44
2022-11-12T00:18:51.270Z,101109.78
2022-11-12T00:21:37.044Z,101116.41
2022-11-12T00:24:22.447Z,101103.81
2022-11-12T00:27:08.111Z,101098.84
2022-11-12T00:29:53.965Z,101101.16
2022-11-12T00:32:39.652Z,101102.78
2022-11-12T00:35:25.468Z,101095.97
2022-11-12T00:38:11.343Z,101098.94
2022-11-12T00:40:59.467Z,101116.69
2022-11-12T00:43:44.855Z,101107.22
2022-11-12T00:46:30.850Z,101098.34
2022-11-12T00:49:16.825Z,101103.16
2022-11-12T00:52:02.582Z,101086.94
2022-11-12T00:54:48.034Z,101085.00
2022-11-12T00:57:33.711Z,101070.53
2022-11-12T01:00:19.382Z,101079.16
2022-11-12T01:03:04.943Z,101082.81
2022-11-12T01:05:50.529Z,101084.06
2022-11-12T01:08:36.493Z,101082.81
2022-11-12T01:11:23.559Z,101078.59
2022-11-12T01:14:09.285Z,101075.34
2022-11-12T01:16:54.990Z,101069.75
2022-11-12T01:19:40.709Z,101061.91
2022-11-12T01:22:26.309Z,101063.25
2022-11-12T01:25:12.028Z,101063.84
2022-11-12T01:27:58.290Z,101054.34
2022-11-12T01:30:43.611Z,101049.81
2022-11-12T01:33:29.248Z,101051.16
2022-11-12T01:36:15.837Z,101051.63
2022-11-12T01:39:01.615Z,101051.81
2022-11-12T01:41:47.470Z,101045.31
2022-11-12T01:44:32.992Z,101048.00
2022-11-12T01:47:18.553Z,101049.09
2022-11-12T01:50:06.978Z,101044.69
2022-11-12T01:52:54.669Z,101053.19
2022-11-12T01:55:40.455Z,101046.50
2022-11-12T01:58:27.172Z,101045.84
2022-11-12T02:01:13.162Z,101036.50
2022-11-12T02:03:59.244Z,101044.59
2022-11-12T02:06:45.073Z,101044.47
2022-11-12T02:09:30.997Z,101047.31
2022-11-12T02:12:35.312Z,101046.66
2022-11-12T02:15:21.135Z,101045.94
2022-11-12T02:18:06.799Z,101033.78
2022-11-12T02:20:55.983Z,101034.41
2022-11-12T02:23:41.557Z,101023.84
2022-11-12T02:26:27.173Z,101017.47
2022-11-12T02:29:13.043Z,101016.19
2022-11-12T02:31:58.741Z,101013.69
2022-11-12T02:34:44.253Z,101019.59
2022-11-12T02:37:30.119Z,101017.50
2022-11-12T02:40:15.799Z,101014.47
2022-11-12T02:43:01.517Z,101025.16
2022-11-12T02:45:47.428Z,101022.75
2022-11-12T02:48:33.243Z,101029.28
2022-11-12T02:51:19.013Z,101025.72
2022-11-12T02:54:04.747Z,101027.28
2022-11-12T02:56:50.304Z,101034.09
2022-11-12T02:59:36.237Z,101039.75
2022-11-12T03:02:21.969Z,101034.28
2022-11-12T03:05:07.812Z,101037.06
2022-11-12T03:08:03.683Z,101033.50
2022-11-12T03:10:49.346Z,101032.72
2022-11-12T03:13:35.310Z,101035.78
2022-11-12T03:16:21.129Z,101027.06
2022-11-12T03:19:07.022Z,101022.16
2022-11-12T03:21:52.704Z,101029.03
2022-11-12T03:24:38.558Z,101029.28
2022-11-12T03:27:24.123Z,101026.75
2022-11-12T03:30:10.217Z,101018.88
2022-11-12T03:32:57.047Z,101029.63
2022-11-12T03:35:43.111Z,101027.00
2022-11-12T03:38:29.394Z,101036.41
2022-11-12T03:41:15.399Z,101038.16
2022-11-12T03:44:00.916Z,101037.16
2022-11-12T03:46:46.880Z,101033.37
2022-11-12T03:49:32.363Z,101035.78
2022-11-12T03:52:18.226Z,101039.69
2022-11-12T03:55:04.509Z,101038.09
2022-11-12T03:57:50.083Z,101042.78
2022-11-12T04:00:35.904Z,101051.34
2022-11-12T04:03:21.779Z,101048.62
2022-11-12T04:06:25.824Z,101050.06
2022-11-12T04:09:11.557Z,101042.91
2022-11-12T04:12:17.070Z,101050.84
2022-11-12T04:15:02.800Z,101043.91
2022-11-12T04:18:06.879Z,101038.53
2022-11-12T04:21:11.478Z,101034.31
2022-11-12T04:23:57.315Z,101039.75
2022-11-12T04:26:43.102Z,101040.31
2022-11-12T04:29:47.580Z,101033.78
2022-11-12T04:32:34.574Z,101031.00
2022-11-12T04:35:20.602Z,101024.28
2022-11-12T04:38:06.473Z,101018.72
2022-11-12T04:41:11.010Z,101017.59
2022-11-12T04:44:15.556Z,101021.13
2022-11-12T04:47:01.159Z,101032.16
2022-11-12T04:49:46.739Z,101031.78
2022-11-12T04:52:32.417Z,101029.75
2022-11-12T04:55:17.992Z,101032.72
2022-11-12T04:58:03.749Z,101026.31
2022-11-12T05:00:49.693Z,101027.56
2022-11-12T05:03:35.459Z,101018.72
2022-11-12T05:06:39.549Z,101020.09
2022-11-12T05:09:26.418Z,101021.66
2022-11-12T05:12:12.027Z,101037.34
2022-11-12T05:14:57.771Z,101033.56
2022-11-12T05:17:43.982Z,101034.13
2022-11-12T05:20:29.648Z,101025.59
2022-11-12T05:23:15.102Z,101029.44
2022-11-12T05:26:00.887Z,101043.34
2022-11-12T05:28:46.449Z,101043.16
2022-11-12T05:31:32.442Z,101034.25
2022-11-12T05:34:22.758Z,101046.81
2022-11-12T05:37:09.419Z,101050.44
2022-11-12T05:39:54.835Z,101047.19
2022-11-12T05:42:40.557Z,101047.47
2022-11-12T05:45:26.069Z,101044.69
2022-11-12T05:48:12.361Z,101047.13
2022-11-12T05:51:12.571Z,101046.81
2022-11-12T05:54:00.925Z,101043.87
2022-11-12T05:56:46.740Z,101042.19
2022-11-12T05:59:32.317Z,101049.63
2022-11-12T06:02:18.173Z,101059.41
2022-11-12T06:05:04.329Z,101052.31
2022-11-12T06:07:50.014Z,101061.03
2022-11-12T06:10:35.650Z,101061.69
2022-11-12T06:13:22.338Z,101069.44
2022-11-12T06:16:08.226Z,101073.44
2022-11-12T06:18:53.874Z,101064.37
2022-11-12T06:21:39.643Z,101076.34
2022-11-12T06:24:27.539Z,101073.91
2022-11-12T06:27:16.658Z,101083.75
2022-11-12T06:30:02.696Z,101086.75
2022-11-12T06:32:48.786Z,101094.19
2022-11-12T06:35:35.694Z,101097.47
2022-11-12T06:38:24.366Z,101105.38
2022-11-12T06:41:10.579Z,101105.75
2022-11-12T06:43:56.193Z,101103.88
2022-11-12T06:46:44.272Z,101112.50
2022-11-12T06:49:30.115Z,101118.44
2022-11-12T06:52:16.790Z,101112.88
2022-11-12T06:55:02.845Z,101117.78
2022-11-12T06:57:51.422Z,101115.47
2022-11-12T07:00:36.921Z,101116.13
2022-11-12T07:03:22.779Z,101117.03
2022-11-12T07:06:09.606Z,101107.16
2022-11-12T07:08:55.091Z,101116.06
2022-11-12T07:11:40.701Z,101116.91
2022-11-12T07:14:26.529Z,101118.37
2022-11-12T07:17:12.080Z,101118.81
2022-11-12T07:20:02.365Z,101133.78
2022-11-12T07:22:49.329Z,101141.94
2022-11-12T07:25:35.174Z,101139.22
2022-11-12T07:28:21.373Z,101144.16
2022-11-12T07:31:08.189Z,101136.38
2022-11-12T07:33:54.029Z,101135.72
2022-11-12T07:36:39.977Z,101133.13
2022-11-12T07:39:25.741Z,101132.81
2022-11-12T07:42:11.621Z,101129.47
2022-11-12T07:44:57.066Z,101125.63
2022-11-12T07:47:42.880Z,101120.66
2022-11-12T07:50:28.759Z,101112.25
2022-11-12T07:53:14.517Z,101112.81
2022-11-12T07:56:00.976Z,101113.81
2022-11-12T07:58:46.893Z,101121.72
2022-11-12T08:01:33.689Z,101116.66
2022-11-12T08:04:19.380Z,101122.22
2022-11-12T08:07:05.297Z,101120.84
2022-11-12T08:09:50.866Z,101134.09
2022-11-12T08:12:36.686Z,101140.91
2022-11-12T08:15:22.439Z,101143.13
2022-11-12T08:18:08.235Z,101149.37
2022-11-12T08:20:59.330Z,101152.31
2022-11-12T08:23:45.132Z,101157.00
2022-11-12T08:26:30.718Z,101153.56
2022-11-12T08:29:16.538Z,101153.81
2022-11-12T08:32:02.297Z,101150.16
2022-11-12T08:34:48.114Z,101153.31
2022-11-12T08:37:33.891Z,101155.28
2022-11-12T08:40:19.767Z,101149.03
2022-11-12T08:43:06.566Z,101153.19
2022-11-12T08:45:52.392Z,101151.25
2022-11-12T08:48:40.127Z,101154.97
2022-11-12T08:51:26.147Z,101148.53
2022-11-12T08:54:11.975Z,101161.19
2022-11-12T08:56:57.856Z,101155.53
2022-11-12T08:59:43.724Z,101160.94
2022-11-12T09:02:29.610Z,101159.34
2022-11-12T09:05:15.345Z,101172.37
2022-11-12T09:08:01.814Z,101174.25
2022-11-12T09:10:48.068Z,101174.88
2022-11-12T09:13:33.924Z,101187.13
2022-11-12T09:16:21.334Z,101180.28
2022-11-12T09:19:06.965Z,101186.66
2022-11-12T09:21:52.538Z,101186.19
2022-11-12T09:24:38.255Z,101181.50
2022-11-12T09:27:26.357Z,101187.47
2022-11-12T09:30:12.431Z,101194.00
2022-11-12T09:32:58.490Z,101205.84
2022-11-12T09:35:45.580Z,101206.66
2022-11-12T09:38:31.580Z,101208.75
2022-11-12T09:41:20.165Z,101212.59
2022-11-12T09:44:09.595Z,101216.03
2022-11-12T09:46:57.352Z,101211.38
2022-11-12T09:49:50.189Z,101208.56
2022-11-12T09:52:35.836Z,101205.88
2022-11-12T09:55:21.712Z,101207.97
2022-11-12T09:58:11.478Z,101208.94
2022-11-12T10:01:01.532Z,101206.41
2022-11-12T10:03:47.371Z,101216.22
2022-11-12T10:06:34.720Z,101224.38
2022-11-12T10:09:22.833Z,101231.53
2022-11-12T10:12:33.508Z,101222.16
2022-11-12T10:15:58.034Z,101225.09
2022-11-12T10:18:49.743Z,101227.34
2022-11-12T10:21:41.454Z,101218.62
2022-11-12T10:24:28.071Z,101224.56
2022-11-12T10:27:15.849Z,101219.47
2022-11-12T10:30:05.475Z,101216.63
2022-11-12T10:32:51.570Z,101210.03
2022-11-12T10:35:37.236Z,101210.41
2022-11-12T10:38:25.859Z,101212.78
2022-11-12T10:41:22.630Z,101207.28
2022-11-12T10:44:10.502Z,101210.09
2022-11-12T10:47:13.065Z,101203.22
2022-11-12T10:50:19.655Z,101199.63
2022-11-12T10:53:06.861Z,101199.75
2022-11-12T10:55:59.775Z,101189.13
2022-11-12T10:58:45.556Z,101182.97
2022-11-12T11:01:35.477Z,101178.38
2022-11-12T11:04:24.393Z,101193.81
2022-11-12T11:07:20.563Z,101187.62
2022-11-12T11:10:12.469Z,101192.59
2022-11-12T11:13:36.931Z,101191.69
2022-11-12T11:16:26.143Z,101187.72
2022-11-12T11:19:12.171Z,101180.59
2022-11-12T11:21:59.014Z,101178.97
2022-11-12T11:24:48.616Z,101174.94
2022-11-12T11:27:36.935Z,101169.94
2022-11-12T11:30:22.460Z,101167.06
2022-11-12T11:33:20.645Z,101173.47
2022-11-12T11:36:24.918Z,101163.50
2022-11-12T11:39:20.222Z,101175.09
2022-11-12T11:42:08.440Z,101169.69
2022-11-12T11:45:04.805Z,101170.53
2022-11-12T11:48:01.632Z,101174.94
2022-11-12T11:51:25.883Z,101174.28
2022-11-12T11:54:30.373Z,101165.84
2022-11-12T11:57:17.064Z,101154.31
2022-11-12T12:00:02.642Z,101149.41
2022-11-12T12:03:06.878Z,101155.53
2022-11-12T12:06:09.793Z,101155.06
2022-11-12T12:08:55.441Z,101154.91
2022-11-12T12:12:00.696Z,101154.47
2022-11-12T12:14:49.159Z,101153.03
2022-11-12T12:17:39.164Z,101148.66
2022-11-12T12:20:33.887Z,101148.91
2022-11-12T12:23:27.154Z,101143.97
2022-11-12T12:26:33.273Z,101138.91
2022-11-12T12:29:25.191Z,101140.97
2022-11-12T12:32:12.105Z,101129.47
2022-11-12T12:35:18.432Z,101128.47
2022-11-12T12:38:22.779Z,101126.62
2022-11-12T12:41:14.318Z,101130.06
2022-11-12T12:44:03.754Z,101128.81
2022-11-12T12:46:51.215Z,101123.19
2022-11-12T12:49:36.997Z,101128.66
2022-11-12T12:52:22.852Z,101134.56
2022-11-12T12:55:15.983Z,101130.00
2022-11-12T12:58:01.825Z,101128.59
2022-11-12T13:00:49.195Z,101133.19
2022-11-12T13:03:47.393Z,101125.72
2022-11-12T13:06:37.833Z,101131.16
2022-11-12T13:09:24.963Z,101128.19
2022-11-12T13:12:10.781Z,101131.47
2022-11-12T13:15:28.975Z,101128.56
2022-11-12T13:18:33.273Z,101121.31
2022-11-12T13:21:19.744Z,101118.59
2022-11-12T13:24:09.104Z,101127.75
2022-11-12T13:26:56.617Z,101121.66
2022-11-12T13:29:43.055Z,101125.63
2022-11-12T13:32:28.662Z,101129.22
2022-11-12T13:35:17.055Z,101121.03
2022-11-12T13:38:08.582Z,101128.00
2022-11-12T13:40:56.900Z,101122.38
2022-11-12T13:43:43.211Z,101126.88
2022-11-12T13:46:32.115Z,101126.88
2022-11-12T13:49:17.687Z,101127.97
2022-11-12T13:52:05.653Z,101128.81
2022-11-12T13:55:01.330Z,101123.56
2022-11-12T13:57:53.489Z,101137.47
2022-11-12T14:00:39.140Z,101128.22
2022-11-12T14:03:25.972Z,101130.56
2022-11-12T14:06:15.788Z,101134.12
2022-11-12T14:09:04.245Z,101137.81
2022-11-12T14:12:08.145Z,101133.41
2022-11-12T14:15:05.777Z,101133.75
2022-11-12T14:18:00.190Z,101124.13
2022-11-12T14:20:45.739Z,101123.28
2022-11-12T14:23:31.367Z,101126.53
2022-11-12T14:26:36.406Z,101122.31
2022-11-12T14:29:21.958Z,101126.13
2022-11-12T14:32:08.753Z,101114.19
2022-11-12T14:34:54.573Z,101114.28
2022-11-12T14:37:43.737Z,101116.81
2022-11-12T14:40:30.853Z,101116.81
2022-11-12T14:43:36.330Z,101122.56
2022-11-12T14:46:26.738Z,101121.97
2022-11-12T14:49:17.935Z,101123.31
2022-11-12T14:52:10.135Z,101120.75
2022-11-12T14:54:59.612Z,101113.28
2022-11-12T14:57:45.211Z,101110.50
2022-11-12T15:00:30.844Z,101113.59
2022-11-12T15:03:20.425Z,101118.41
2022-11-12T15:06:06.101Z,101122.94
2022-11-12T15:08:58.495Z,101118.41
2022-11-12T15:11:45.183Z,101117.66
2022-11-12T15:14:30.832Z,101121.47
2022-11-12T15:17:35.023Z,101124.06
2022-11-12T15:20:20.565Z,101127.12
2022-11-12T15:23:06.237Z,101125.16
2022-11-12T15:25:59.144Z,101135.97
2022-11-12T15:29:04.146Z,101138.44
2022-11-12T15:31:50.617Z,101139.94
2022-11-12T15:34:39.284Z,101134.12
2022-11-12T15:37:28.051Z,101138.06
2022-11-12T15:40:18.786Z,101132.66
2022-11-12T15:43:10.514Z,101138.06
2022-11-12T15:45:56.536Z,101144.09
2022-11-12T15:48:42.043Z,101135.75
2022-11-12T15:51:27.690Z,101148.66
2022-11-12T15:54:13.211Z,101149.50
2022-11-12T15:56:58.967Z,101152.84
2022-11-12T15:59:44.924Z,101161.81
2022-11-12T16:02:30.747Z,101165.13
2022-11-12T16:05:17.229Z,101165.37
2022-11-12T16:08:02.852Z,101157.28
2022-11-12T16:10:48.732Z,101157.03
2022-11-12T16:13:34.540Z,101164.03
2022-11-12T16:16:19.953Z,101163.50
2022-11-12T16:19:15.100Z,101165.00
2022-11-12T16:22:01.280Z,101163.66
2022-11-12T16:24:47.442Z,101162.91
2022-11-12T16:27:32.957Z,101159.37
2022-11-12T16:30:19.895Z,101162.78
2022-11-12T16:33:05.722Z,101164.38
2022-11-12T16:35:51.508Z,101154.91
2022-11-12T16:38:37.222Z,101156.78
2022-11-12T16:41:23.006Z,101153.25
2022-11-12T16:44:08.900Z,101151.56
2022-11-12T16:46:54.806Z,101161.44
2022-11-12T16:49:42.767Z,101157.00
2022-11-12T16:52:28.527Z,101156.75
2022-11-12T16:55:14.667Z,101158.38
2022-11-12T16:58:00.401Z,101152.81
2022-11-12T17:00:46.762Z,101149.88
2022-11-12T17:03:32.707Z,101153.22
2022-11-12T17:06:18.903Z,101157.00
2022-11-12T17:09:05.284Z,101158.59
2022-11-12T17:11:50.714Z,101155.63
2022-11-12T17:14:36.527Z,101156.03
2022-11-12T17:17:22.530Z,101156.03
2022-11-12T17:20:09.028Z,101155.25
2022-11-12T17:22:54.653Z,101152.94
2022-11-12T17:25:40.518Z,101154.78
2022-11-12T17:28:27.634Z,101154.78
2022-11-12T17:31:16.261Z,101152.22
2022-11-12T17:34:03.959Z,101158.47
2022-11-12T17:36:49.617Z,101152.94
2022-11-12T17:39:35.397Z,101151.34
2022-11-12T17:42:21.084Z,101148.16
2022-11-12T17:45:07.056Z,101145.69
2022-11-12T17:47:52.683Z,101146.78
2022-11-12T17:50:38.129Z,101148.00
2022-11-12T17:53:24.004Z,101141.44
2022-11-12T17:56:11.350Z,101141.53
2022-11-12T17:58:57.029Z,101134.16
2022-11-12T18:01:42.763Z,101145.47
2022-11-12T18:04:34.322Z,101149.59
2022-11-12T18:07:23.045Z,101146.50
2022-11-12T18:10:09.731Z,101158.53
2022-11-12T18:12:56.027Z,101152.34
2022-11-12T18:15:41.628Z,101148.47
2022-11-12T18:18:28.099Z,101147.62
2022-11-12T18:21:13.912Z,101151.78
2022-11-12T18:24:00.486Z,101144.00
2022-11-12T18:26:47.223Z,101154.16
2022-11-12T18:29:32.788Z,101154.16
2022-11-12T18:32:18.549Z,101161.00
2022-11-12T18:35:05.034Z,101162.00
2022-11-12T18:37:51.277Z,101163.16
2022-11-12T18:40:37.056Z,101154.34
2022-11-12T18:43:22.830Z,101161.59
2022-11-12T18:46:09.275Z,101163.31
2022-11-12T18:48:55.119Z,101171.00
2022-11-12T18:51:41.443Z,101182.16
2022-11-12T18:54:27.015Z,101174.81
2022-11-12T18:57:12.729Z,101174.03
2022-11-12T18:59:58.650Z,101178.28
2022-11-12T19:02:44.492Z,101180.13
2022-11-12T19:05:30.115Z,101175.28
2022-11-12T19:08:16.095Z,101173.41
2022-11-12T19:11:03.055Z,101175.91
2022-11-12T19:13:52.327Z,101181.50
2022-11-12T19:16:40.356Z,101181.63
2022-11-12T19:19:25.950Z,101187.13
2022-11-12T19:22:11.982Z,101182.28
2022-11-12T19:24:57.625Z,101188.44
2022-11-12T19:27:43.183Z,101191.44
2022-11-12T19:30:29.186Z,101188.09
2022-11-12T19:33:14.844Z,101192.44
2022-11-12T19:36:06.185Z,101194.06
2022-11-12T19:38:56.095Z,101199.66
2022-11-12T19:41:42.275Z,101202.22
2022-11-12T19:44:27.869Z,101198.88
2022-11-12T19:47:13.646Z,101200.34
2022-11-12T19:49:59.655Z,101208.03
2022-11-12T19:52:45.519Z,101207.97
2022-11-12T19:55:34.584Z,101208.69
2022-11-12T19:58:24.813Z,101205.78
2022-11-12T20:01:11.461Z,101212.72
2022-11-12T20:03:57.702Z,101218.62
2022-11-12T20:06:43.409Z,101220.16
2022-11-12T20:09:29.420Z,101223.50
2022-11-12T20:12:15.072Z,101221.97
2022-11-12T20:15:00.801Z,101226.19
2022-11-12T20:17:46.891Z,101216.06
2022-11-12T20:20:32.437Z,101220.47
2022-11-12T20:23:18.590Z,101221.31
2022-11-12T20:26:04.836Z,101219.03
2022-11-12T20:28:50.746Z,101220.16
2022-11-12T20:31:37.994Z,101225.12
2022-11-12T20:34:24.000Z,101221.09
2022-11-12T20:37:10.161Z,101220.16
2022-11-12T20:39:55.857Z,101222.84
2022-11-12T20:42:41.672Z,101222.72
2022-11-12T20:45:27.569Z,101223.50
2022-11-12T20:48:13.360Z,101219.69
2022-11-12T20:51:22.183Z,101217.25
2022-11-12T20:54:09.055Z,101214.56
2022-11-12T20:56:56.117Z,101220.59
2022-11-12T20:59:42.069Z,101212.16
2022-11-12T21:02:27.636Z,101205.66
2022-11-12T21:05:13.539Z,101214.06
2022-11-12T21:07:59.332Z,101222.50
2022-11-12T21:10:48.505Z,101222.91
2022-11-12T21:13:34.981Z,101221.88
2022-11-12T21:16:20.908Z,101222.34
2022-11-12T21:19:07.141Z,101228.66
2022-11-12T21:21:53.374Z,101219.97
2022-11-12T21:24:39.158Z,101213.72
2022-11-12T21:27:24.770Z,101214.19
2022-11-12T21:30:11.034Z,101212.03
2022-11-12T21:32:56.866Z,101208.69
2022-11-12T21:35:43.170Z,101212.69
2022-11-12T21:38:29.405Z,101211.47
2022-11-12T21:41:16.561Z,101213.75
2022-11-12T21:44:02.104Z,101220.53
2022-11-12T21:46:47.847Z,101209.31
2022-11-12T21:49:33.535Z,101215.75
2022-11-12T21:52:19.407Z,101215.03
2022-11-12T21:55:05.665Z,101212.41
2022-11-12T21:57:52.005Z,101212.16
2022-11-12T22:00:42.336Z,101209.59
2022-11-12T22:03:31.376Z,101210.34
2022-11-12T22:06:17.302Z,101213.19
2022-11-12T22:09:02.789Z,101204.09
2022-11-12T22:11:48.680Z,101206.97
2022-11-12T22:14:34.401Z,101202.00
2022-11-12T22:17:20.310Z,101198.66
2022-11-12T22:20:06.363Z,101197.31
2022-11-12T22:22:52.590Z,101203.50
2022-11-12T22:25:38.377Z,101206.06
2022-11-12T22:28:24.436Z,101206.53
2022-11-12T22:31:11.234Z,101209.63
2022-11-12T22:33:58.174Z,101203.75
2022-11-12T22:36:44.214Z,101209.13
2022-11-12T22:39:29.787Z,101210.59
2022-11-12T22:42:15.496Z,101204.53
2022-11-12T22:45:01.369Z,101205.22
2022-11-12T22:47:47.147Z,101205.88
2022-11-12T22:50:32.963Z,101208.88
2022-11-12T22:53:18.765Z,101210.63
2022-11-12T22:56:05.324Z,101206.75
2022-11-12T22:58:51.373Z,101207.50
2022-11-12T23:01:37.342Z,101204.06
2022-11-12T23:04:23.540Z,101205.09
2022-11-12T23:07:09.306Z,101209.34
2022-11-12T23:09:55.091Z,101204.06
2022-11-12T23:12:40.807Z,101198.19
2022-11-12T23:15:29.621Z,101198.84
2022-11-12T23:18:15.496Z,101199.06
2022-11-12T23:21:05.259Z,101204.91
2022-11-12T23:23:51.014Z,101202.53
2022-11-12T23:26:36.732Z,101206.84
2022-11-12T23:29:22.509Z,101210.22
2022-11-12T23:32:08.243Z,101211.53
2022-11-12T23:34:54.048Z,101208.34
2022-11-12T23:37:39.804Z,101210.56
2022-11-12T23:40:30.724Z,101201.16
2022-11-12T23:43:17.087Z,101201.06
2022-11-12T23:46:02.929Z,101211.38
2022-11-12T23:48:48.624Z,101206.16
2022-11-12T23:51:34.013Z,101201.56
2022-11-12T23:54:19.792Z,101214.41
2022-11-12T23:57:05.812Z,101207.66
2022-11-12T23:59:52.135Z,101203.94
